Pagrindinis puslapis
METAR-TAF:

METAR-TAF

Oro uostai :

Damaskas, Sirija

platuma: 33-25N, ilguma: 036-31E, Aukštis: 608 m

Dabartinis oras

Ataskaita buvo paskelbta 32 minutes, ne 13:00 UTC
Vėjas 5 kt iš Pietų/Pietvakarių
Temperatūra 20°C
Drėgmė 37%
Slėgis 1014 hPa
Matomumas 10 km arba daugiau
nėra debesų žemiau 1500 m ir nėra kamuolinių lietaus debesų

METAR: OSDI 281300Z 21005KT CAVOK 20/05 Q1014

Laikas: 15:32 (13:32 UTC)

Prognozė

Prognozė galioja nuo 28 metu 12 UTC su 29 metu 18 UTC
Vėjas 10 kt iš Pietvakarių
Matomumas 10 km arba daugiau
Mažai debesys ne aukštis 3000 ft
Išsisklaidę debesys ne aukštis 10000 ft
Laikinai
nuo 29 metu 00 UTC su 29 metu 18 UTC
Vėjas 10 kt iš Pietvakarių su gūsio iki 20 kt
Matomumas: 8000 m
Mažai debesys ne aukštis 2500 ft
Išsisklaidę debesys ne aukštis 3000 ft
Su prošvaistėmis ne aukštis 10000 ft
lietus

TAF: OSDI 2812/2918 22010KT 9999 FEW030 SCT100 TEMPO 2900/2918 22010G20KT 8000 SHRA FEW025 CB SCT030 BKN100

Orai ataskaitas ir orų prognozės (METAR, TAF).

turimą stotys yra geltonos ir raudonos taškus žemėlapyje.

Perkelti pele per norėdami pamatyti stoties vardą.

Tada spustelėkite, norėdami matyti oro stebėjimo ir prognozės.

Norėdami pakeisti žemėlapį: spustelėkite ant žalios mygtukų su juodo kryžiaus žemyn,; žalią mygtuką su brūkšneliu, jei norite nutolinti; arba žalių rodyklių gretimoms žemėlapius.


METAR-TAF: